Terminal Aerodrome Forecast
Issued by NWS Melbourne, FL

Current Version | Previous Version | Text Only | Print | Product List | Glossary On
Versions: 1 2 3 4 5 6 7 8 9 10 11 12 13 14 15 16 17 18
015
FTUS42 KMLB 302127 AAA
TAFDAB
TAF AMD
KDAB 302127Z 3021/0118 09008KT P6SM VCTS SCT035CB SCT060 BKN120
      TEMPO 3021/3024 VRB12G32KT 1SM +TSRA FEW005 SCT015 BKN025CB
     FM010100 VRB03KT P6SM FEW040 SCT250
     FM010600 VRB03KT P6SM FEW250
     FM011500 36005KT P6SM SCT025 SCT250
     FM011700 03005KT P6SM SCT035 SCT250=

USA.gov is the U.S. government's official web portal to all federal, state and local government web resources and services.